Extreme weather reports worldwide

Highest temperatures

Station
 
Location
 
Name
 
Wind
Knots
Gust
Knots
Vis
SM
Temp/Dew
C
Baro
inHg
METAR
 
ABD OIAA Abadan, IR Abadan Airport 6 49/6 29.50 OIAA 181400Z 03006KT CAVOK 49/06 Q0999
AKW OIAG Aghajari, IR Aghajari Airport 8 49/8 29.50 OIAG 181400Z 20008KT CAVOK 49/08 Q0999
OICM 8 49/9 29.56 OICM 181400Z 36008KT CAVOK 49/09 Q1001
BSR ORMM Basrah, IQ Basrah International Airport 8 49/0 29.50 ORMM 181400Z 32008KT CAVOK 49/00 Q0999 NOSIG
AWZ OIAW Ahwaz, IR Ahwaz Airport 6 49/7 29.47 OIAW 181430Z 23006KT CAVOK 49/07 Q0998

Station
 
Location
 
Name
 
Wind
Knots
Gust
Knots
Vis
SM
Temp/Dew
C
Baro
inHg
METAR
 
OKKK 4 48/5 29.53 OKKK 181400Z 10004KT CAVOK 48/05 Q1000 NOSIG
AQI OEPA Qaisumah, SA Al Qaisumah/Hafr Al Batin Airport 10 47/-1 29.65 OEPA 181400Z 03010KT CAVOK 47/M01 Q1004 NOSIG
MRX OIAM IR Mahshahr Airport 8 47/19 29.50 OIAM 181400Z 27008KT CAVOK 47/19 Q0999
KHS OOKB Khasab, OM Khasab Air Base 5 46/11 29.44 OOKB 181350Z 27005KT 230V340 CAVOK 46/11 Q0997 NOSIG
KQTZ 11 46/4 29.62 KQTZ 181355Z 35011KT 9999 FEW120 FEW220 46/04 A2962 RMK SLP031
HOF OEAH SA Al Ahsa Airport 5 46/2 29.56 OEAH 181400Z 28005KT CAVOK 46/02 Q1001 NOSIG
RAH OERF Rafha, SA Rafha Domestic Airport 3 46/-1 29.70 OERF 181400Z 14003KT CAVOK 46/M01 Q1006 NOSIG
BGW ORBI Baghdad, IQ Baghdad International Airport 11 46/5 29.62 ORBI 181400Z 35011KT CAVOK 46/05 Q1003 NOSIG
MED OEMA Medina, SA Prince Mohammad Bin Abdulaziz Airport 12 46/-6 29.73 OEMA 181409Z 07012KT 9999 SCT045 46/M06 Q1007 NOSIG
TGR DAUK Touggourt, DZ Touggourt Sidi Madhi Airport 5 45/5 29.91 DAUK 181400Z 16005KT CAVOK 45/05 Q1013
OEAO 8 45/-1 29.70 OEAO 181400Z 24008KT 9999 SCT040 45/M01 Q1006 NOSIG
DMM OEDF Ad Dammam, SA King Fahd International Airport 3 45/-1 29.50 OEDF 181400Z 06003KT CAVOK 45/M01 Q0999 NOSIG
YNB OEYN Yanbu, SA Prince Abdulmohsin Bin Abdulaziz Airport 15 45/13 29.47 OEYN 181400Z 27015KT 9999 FEW040 45/13 Q0998 NOSIG
OOAD 12 44/10 29.59 OOAD 181350Z AUTO 24012KT 9999 // NCD 44/10 Q1002 NOSIG
AKH OEPS SA Prince Sultan Air Base 6 10 44/-3 29.71 OEPS 181355Z 06006G10KT 9999 CLR 44/M03 A2971 RMK AO2A SLP027 WND DATA ESTMD T04401035
XJD OTBH Ar Rayyan, QA Al Udeid Air Base 10 5.59 44/10 29.50 OTBH 181355Z 06010KT 9000 HZ CLR 44/10 A2950 Q0999 RMK SLPNO FZRANO $
AJY DRZA Agadez, NE Mano Dayak International Airport 6 44/8 29.79 DRZA 181400Z 32006KT 9999 FEW040 44/08 Q1009
DTTN 5 44/4 29.85 DTTN 181400Z 06005KT 9999 SCT020 44/04 Q1011 SIROCCO
ASW HESN Aswan, EG Aswan International Airport 7 44/3 29.68 HESN 181400Z 01007KT CAVOK 44/03 Q1005 NOSIG
ELQ OEGS SA Gassim Airport 15 44/-2 29.73 OEGS 181400Z 07015KT CAVOK 44/M02 Q1007
URY OEGT Gurayat, SA Gurayat Domestic Airport 8 44/-4 29.73 OEGT 181400Z 23008KT CAVOK 44/M04 Q1007 NOSIG
RAE OERR Arar, SA Arar Domestic Airport 0 44/-2 29.73 OERR 181400Z 00000KT 9999 SCT030 44/M02 Q1007 NOSIG
OERS 19 3.11 44/13 29.56 OERS 181400Z 31019KT 5000 BLDU SCT040 44/13 Q1001 NOSIG
WAE OEWD SA Wadi Al Dawasir Airport 4 44/-7 29.62 OEWD 181400Z 36004KT CAVOK 44/M07 Q1003
LFM OISR Lamerd, IR Lamerd Airport 12 44/15 29.59 OISR 181400Z 27012KT CAVOK 44/15 Q1002 A2961 NOSIG
IHR OIZI Iranshahr, IR Iran Shahr Airport 14 44/6 29.56 OIZI 181400Z 33014KT 9999 FEW040 44/06 Q1001
AAN OMAL Al Ain, AE Al Ain International Airport 18 4.97 44/15 29.53 OMAL 181400Z 33018KT 8000 NSC 44/15 Q1000 NOSIG
FJR OMFJ AE Fujairah International Airport 4 4.97 44/13 29.47 OMFJ 181400Z 15004KT 8000 NSC 44/13 Q0998 A2947
TBJ DTKA Tabarka, TN Tabarka 7 Novembre Airport 8 43/8 29.85 DTKA 181400Z 03008KT 350V080 CAVOK 43/08 Q1011 NOSIG :SIROCCO
EBM DTTR El Borma, TN El Borma Airport 11 4.97 43/3 29.97 DTTR 181400Z 07011KT 8000 FEW020 43/03 Q1015 RMK SIROCCO
ABS HEBL Abu Simbel, EG Abu Simbel Airport 10 43/2 29.62 HEBL 181400Z 05010KT CAVOK 43/02 Q1003 NOSIG
LXR HELX Luxor, EG Luxor International Airport 3 43/7 29.65 HELX 181400Z 36003KT CAVOK 43/07 Q1004 NOSIG
DHA OEDR SA King Abdulaziz Air Base 9 43/8 29.50 OEDR 181400Z 06009KT CAVOK 43/08 Q0999
OEKJ 4 43/-3 29.70 OEKJ 181400Z 05004KT CAVOK 43/M03 Q1006
RUH OERK Riyadh, SA King Khaled International Airport 6 43/-4 29.70 OERK 181400Z 07006KT CAVOK 43/M04 Q1006 NOSIG
AJF OESK Al-Jawf, SA Al-Jawf Domestic Airport 9 43/0 29.82 OESK 181400Z 24009KT 9999 SCT040 43/00 Q1010 TEMPO TSRA
TUU OETB Tabuk, SA Tabuk Airport 5 43/-5 29.76 OETB 181400Z 33005KT 9999 FEW040 43/M05 Q1008 NOSIG
EBL ORER Arbil, IQ Erbil International Airport 13 43/-4 29.79 ORER 181400Z 30013KT 9999 FEW040 43/M04 Q1009
BUJ DAAD DZ Bou Saada Airport 22 35 1.86 42/6 29.91 DAAD 181400Z 22022G35KT 3000 BLSA FEW026TCU SCT030 42/06 Q1013
BSK DAUB Biskra, DZ Biskra Airport 10 42/3 29.94 DAUB 181400Z 13010KT CAVOK 42/03 Q1014
ELU DAUO Guemar, DZ Guemar Airport 3 42/5 29.91 DAUO 181400Z 17003KT 9999 FEW046 42/05 Q1013
TOE DTTZ Tozeur, TN Tozeur Nefta International Airport 8 42/5 29.94 DTTZ 181400Z 13008KT 090V170 CAVOK 42/05 Q1014
SHW OESH SA Sharurah Airport 5 42/-4 29.70 OESH 181400Z 04005KT CAVOK 42/M04 Q1006 NOSIG
GCH OIAH Gachsaran, IR Gachsaran Airport 8 42/7 29.73 OIAH 181400Z 27008KT 9999 FEW040 42/07 Q1007
LRR OISL Lar, IR Lar Airport 8 42/8 29.65 OISL 181400Z 31008KT 9999 SCT035CB SCT040 42/08 Q1004 A2967 NOSIG